Time;durP1;ratioP1;P1;durP2;ratioP2;P2;SDS_P1;SDS_P2;PMS_P1;PMS_P2;Temp;Humidity;BMP_temperature;BMP_pressure;BME280_temperature;BME280_humidity;BME280_pressure;Samples;Min_cycle;Max_cycle;Signal;HPM_P1;HPM_P2
2021/11/03 00:02:18;;;;;;;;;;;;;;;15.43;100.00;99910.56;4936803;29;20048;-52
2021/11/03 00:04:44;;;;;;;49.40;25.80;;;;;;;15.66;100.00;99902.47;4919237;29;19929;-54
2021/11/03 00:07:11;;;;;;;46.73;25.23;;;;;;;14.94;100.00;99907.78;4934963;29;20040;-51
2021/11/03 00:09:37;;;;;;;53.05;26.77;;;;;;;15.20;100.00;99911.63;4935994;29;20313;-51
2021/11/03 00:12:06;;;;;;;50.83;25.92;;;;;;;14.90;100.00;99912.81;4936176;29;20053;-52
2021/11/03 00:14:32;;;;;;;48.65;25.30;;;;;;;15.05;100.00;99913.06;4935122;29;20541;-52
2021/11/03 00:16:57;;;;;;;50.27;26.10;;;;;;;14.73;100.00;99907.47;4919211;29;20127;-51
2021/11/03 00:19:22;;;;;;;49.13;26.30;;;;;;;14.51;100.00;99905.50;4936310;29;20074;-55
2021/11/03 00:21:48;;;;;;;50.17;25.87;;;;;;;14.26;100.00;99904.00;4919086;29;20680;-53
2021/11/03 00:24:13;;;;;;;51.03;25.70;;;;;;;14.78;100.00;99904.84;4919143;29;20036;-55
2021/11/03 00:26:39;;;;;;;48.43;25.43;;;;;;;14.71;100.00;99913.09;4936102;29;20103;-56
2021/11/03 00:29:04;;;;;;;47.50;23.93;;;;;;;14.70;100.00;99916.81;4918879;29;20078;-50
2021/11/03 00:31:30;;;;;;;45.83;24.57;;;;;;;14.71;100.00;99918.47;4934484;29;20513;-50
2021/11/03 00:33:56;;;;;;;42.23;22.97;;;;;;;14.96;100.00;99919.91;4918899;29;20110;-50
2021/11/03 00:36:22;;;;;;;50.72;24.23;;;;;;;15.17;100.00;99921.03;4935940;29;20099;-52
2021/11/03 00:38:48;;;;;;;48.10;25.15;;;;;;;15.22;100.00;99924.84;4919332;29;20394;-52
2021/11/03 00:41:14;;;;;;;39.20;22.87;;;;;;;15.24;100.00;99923.53;4936396;29;20482;-53
2021/11/03 00:43:39;;;;;;;43.13;22.83;;;;;;;15.38;100.00;99923.16;4919305;29;20831;-53
2021/11/03 00:46:05;;;;;;;43.43;22.20;;;;;;;15.36;100.00;99919.91;4918766;29;20071;-52
2021/11/03 00:48:31;;;;;;;47.30;22.70;;;;;;;15.32;100.00;99931.19;4934519;29;20302;-50
2021/11/03 00:50:56;;;;;;;44.38;23.98;;;;;;;14.96;100.00;99927.97;4935405;29;20297;-54
2021/11/03 00:53:22;;;;;;;41.93;22.30;;;;;;;15.02;100.00;99932.41;4934623;29;20031;-53
2021/11/03 00:55:49;;;;;;;44.95;24.83;;;;;;;14.98;100.00;99923.16;4903025;29;20399;-50
2021/11/03 00:58:15;;;;;;;47.72;24.20;;;;;;;15.01;100.00;99928.09;4935452;29;20039;-47
2021/11/03 01:00:42;;;;;;;42.55;22.77;;;;;;;15.00;100.00;99929.16;4918353;29;20047;-50
2021/11/03 01:03:09;;;;;;;46.08;22.50;;;;;;;15.01;100.00;99925.38;4918627;29;20442;-53
2021/11/03 01:05:38;;;;;;;44.85;22.77;;;;;;;14.94;100.00;99916.66;4919243;29;20493;-53
2021/11/03 01:08:10;;;;;;;46.53;23.55;;;;;;;14.69;100.00;99915.19;4918744;29;20386;-49
2021/11/03 01:10:39;;;;;;;44.70;23.90;;;;;;;14.77;100.00;99922.88;4935721;29;20044;-50
2021/11/03 01:13:06;;;;;;;46.85;23.67;;;;;;;14.66;100.00;99917.56;4935878;29;20055;-48
2021/11/03 01:15:32;;;;;;;42.70;22.08;;;;;;;14.85;100.00;99912.75;4935446;29;20094;-48
2021/11/03 01:17:58;;;;;;;47.55;21.75;;;;;;;14.83;100.00;99914.88;4934610;29;20103;-52
2021/11/03 01:20:25;;;;;;;44.00;22.90;;;;;;;14.76;100.00;99909.66;4918281;29;20525;-52
2021/11/03 01:22:52;;;;;;;42.65;22.27;;;;;;;14.98;100.00;99909.69;4935558;29;20035;-49
2021/11/03 01:25:18;;;;;;;42.13;21.17;;;;;;;14.99;100.00;99908.66;4935233;29;20191;-48
2021/11/03 01:27:43;;;;;;;45.17;21.77;;;;;;;14.89;100.00;99900.44;4918249;29;20549;-50
2021/11/03 01:30:13;;;;;;;33.42;18.00;;;;;;;14.85;100.00;99908.16;4918427;29;20296;-53
2021/11/03 01:32:39;;;;;;;41.25;22.80;;;;;;;14.74;100.00;99915.28;4918273;29;20058;-52
2021/11/03 01:35:05;;;;;;;42.72;23.08;;;;;;;14.69;100.00;99909.78;4935515;29;20501;-50
2021/11/03 01:37:31;;;;;;;42.22;22.52;;;;;;;14.84;100.00;99901.16;4918022;29;20067;-50
2021/11/03 01:39:57;;;;;;;40.20;22.37;;;;;;;14.90;100.00;99904.75;4917943;29;20028;-52
2021/11/03 01:42:23;;;;;;;41.45;21.60;;;;;;;15.01;100.00;99903.03;4918140;29;20504;-48
2021/11/03 01:44:49;;;;;;;43.85;22.85;;;;;;;14.66;100.00;99901.41;4918460;29;20375;-58
2021/11/03 01:47:43;;;;;;;39.53;21.80;;;;;;;15.07;100.00;99902.03;4917712;29;20031;-53
2021/11/03 01:50:12;;;;;;;39.53;20.63;;;;;;;14.82;100.00;99889.81;4918148;29;20044;-50
2021/11/03 01:52:40;;;;;;;42.63;21.25;;;;;;;14.83;100.00;99891.47;4936407;29;20133;-48
2021/11/03 01:55:10;;;;;;;35.85;20.30;;;;;;;14.81;100.00;99898.16;4938809;29;20473;-55
2021/11/03 01:57:46;;;;;;;44.65;22.70;;;;;;;14.93;100.00;99896.19;4922305;29;20058;-52
2021/11/03 02:00:21;;;;;;;39.88;21.92;;;;;;;14.56;100.00;99889.41;4939261;29;20051;-54
2021/11/03 02:03:07;;;;;;;38.22;21.10;;;;;;;14.79;100.00;99887.63;4921940;29;20063;-54
2021/11/03 02:05:36;;;;;;;45.50;20.75;;;;;;;14.85;100.00;99891.22;4922140;29;20052;-50
2021/11/03 02:08:03;;;;;;;42.27;20.80;;;;;;;14.74;100.00;99891.06;4938504;29;20485;-51
2021/11/03 02:10:30;;;;;;;40.65;20.08;;;;;;;14.74;100.00;99882.97;4938241;29;20048;-50
2021/11/03 02:12:58;;;;;;;44.92;21.10;;;;;;;14.66;100.00;99882.59;4921616;29;20089;-53
2021/11/03 02:15:25;;;;;;;38.67;20.45;;;;;;;14.69;100.00;99874.00;4921231;29;20032;-52
2021/11/03 02:17:51;;;;;;;35.47;19.73;;;;;;;14.73;100.00;99885.94;4921347;29;20138;-54
2021/11/03 02:20:21;;;;;;;40.28;20.10;;;;;;;14.64;100.00;99882.81;4920818;29;20064;-51
2021/11/03 02:23:25;;;;;;;39.55;21.02;;;;;;;14.48;100.00;99879.88;4921182;29;20035;-50
2021/11/03 02:26:04;;;;;;;41.80;20.40;;;;;;;14.44;100.00;99867.19;4893949;29;20075;-54
2021/11/03 02:28:32;;;;;;;35.10;18.70;;;;;;;14.45;100.00;99866.91;4937882;29;20048;-54
2021/11/03 02:30:58;;;;;;;33.97;19.15;;;;;;;14.44;100.00;99869.88;4920900;29;20413;-50
2021/11/03 02:33:27;;;;;;;38.17;19.85;;;;;;;14.39;100.00;99870.59;4937229;29;20040;-54
2021/11/03 02:35:57;;;;;;;43.55;22.73;;;;;;;14.44;100.00;99864.50;4920603;29;20039;-52
2021/11/03 02:38:35;;;;;;;63.53;21.73;;;;;;;14.49;100.00;99861.88;4921297;29;20047;-50
2021/11/03 02:41:25;;;;;;;116.93;23.40;;;;;;;14.42;100.00;99856.66;4937112;29;20039;-54
2021/11/03 02:43:50;;;;;;;177.98;26.17;;;;;;;14.53;100.00;99859.50;4938087;29;20115;-55
2021/11/03 02:46:17;;;;;;;268.10;31.10;;;;;;;14.48;100.00;99860.25;4920665;29;20454;-54
2021/11/03 02:48:43;;;;;;;;;;;;;;;14.57;100.00;99860.66;4936694;29;20078;-53
2021/11/03 02:51:17;;;;;;;236.45;27.83;;;;;;;14.55;100.00;99858.19;4920593;29;19919;-53
2021/11/03 02:53:46;;;;;;;286.92;26.98;;;;;;;14.68;100.00;99859.72;4936628;29;20451;-52
2021/11/03 02:56:14;;;;;;;185.63;24.60;;;;;;;14.65;100.00;99862.09;4920211;29;20152;-51
2021/11/03 02:58:40;;;;;;;177.48;25.15;;;;;;;14.52;100.00;99861.38;4936336;29;20043;-53
2021/11/03 03:01:14;;;;;;;464.33;38.65;;;;;;;14.49;100.00;99865.38;4920630;29;20072;-54
2021/11/03 03:03:44;;;;;;;558.88;41.90;;;;;;;14.22;100.00;99869.78;4935790;29;20040;-51
2021/11/03 03:06:16;;;;;;;486.40;36.40;;;;;;;13.32;100.00;99869.19;4936242;29;20138;-50
2021/11/03 03:08:42;;;;;;;334.90;29.30;;;;;;;12.97;100.00;99875.44;4937698;29;20071;-52
2021/11/03 03:11:08;;;;;;;456.35;37.90;;;;;;;12.87;100.00;99867.97;4937371;29;20036;-50
2021/11/03 03:13:34;;;;;;;348.67;29.58;;;;;;;12.73;100.00;99880.00;4937422;29;20067;-52
2021/11/03 03:16:00;;;;;;;318.45;25.75;;;;;;;12.57;100.00;99884.19;4920637;29;20048;-48
2021/11/03 03:18:26;;;;;;;400.63;34.87;;;;;;;12.14;100.00;99880.75;4919974;29;20146;-53
2021/11/03 03:20:52;;;;;;;136.77;19.48;;;;;;;12.89;100.00;99873.94;4919966;29;20090;-53
2021/11/03 03:23:17;;;;;;;100.97;21.30;;;;;;;13.17;100.00;99876.94;4937485;29;20042;-48
2021/11/03 03:25:44;;;;;;;180.53;22.97;;;;;;;13.27;100.00;99879.03;4936182;29;20040;-49
2021/11/03 03:28:14;;;;;;;249.32;29.88;;;;;;;13.41;100.00;99883.06;4904363;29;20047;-52
2021/11/03 03:30:40;;;;;;;85.72;20.38;;;;;;;13.72;100.00;99882.88;4920212;29;20059;-52
2021/11/03 03:33:06;;;;;;;250.07;29.33;;;;;;;13.39;100.00;99879.00;4904065;29;20047;-50
2021/11/03 03:35:31;;;;;;;194.38;30.13;;;;;;;13.51;100.00;99892.44;4936918;29;20059;-52
2021/11/03 03:37:57;;;;;;;123.03;22.75;;;;;;;13.59;100.00;99894.72;4936845;29;20482;-52
2021/11/03 03:40:22;;;;;;;149.00;25.03;;;;;;;13.07;100.00;99901.69;4936131;29;20044;-53
2021/11/03 03:42:48;;;;;;;201.68;29.60;;;;;;;12.73;100.00;99915.69;4935794;29;20378;-51
2021/11/03 03:45:15;;;;;;;180.32;27.38;;;;;;;12.90;100.00;99905.09;4935559;29;20245;-52
2021/11/03 03:47:40;;;;;;;;;;;;;;;13.02;100.00;99906.94;4920501;29;20047;-54
2021/11/03 03:50:07;;;;;;;197.73;29.63;;;;;;;12.62;100.00;99916.50;4935254;29;19921;-54
2021/11/03 03:52:32;;;;;;;;;;;;;;;12.30;100.00;99901.50;4920496;29;20032;-51
2021/11/03 03:54:58;;;;;;;292.50;32.83;;;;;;;12.35;100.00;99903.50;4936948;29;19925;-49
2021/11/03 03:57:23;;;;;;;190.90;29.17;;;;;;;12.88;100.00;99906.34;4935449;29;20031;-51
2021/11/03 03:59:49;;;;;;;247.23;31.35;;;;;;;13.02;100.00;99902.38;4919482;29;20040;-51
2021/11/03 04:02:15;;;;;;;145.32;25.95;;;;;;;13.67;100.00;99906.97;4919249;29;20082;-49
2021/11/03 04:04:41;;;;;;;167.05;27.85;;;;;;;13.60;100.00;99907.09;4920017;29;20154;-53
2021/11/03 04:07:07;;;;;;;115.45;25.00;;;;;;;13.86;100.00;99911.09;4936304;29;20051;-49
2021/11/03 04:09:33;;;;;;;168.63;28.25;;;;;;;14.12;100.00;99913.44;4935086;29;20059;-48
2021/11/03 04:11:59;;;;;;;158.25;28.73;;;;;;;14.03;100.00;99907.63;4935240;29;20043;-55
2021/11/03 04:14:25;;;;;;;128.93;23.80;;;;;;;13.93;100.00;99910.94;4919421;29;20375;-51
2021/11/03 04:16:50;;;;;;;124.50;25.00;;;;;;;13.79;100.00;99915.78;4919332;29;20363;-49
2021/11/03 04:19:16;;;;;;;119.13;24.85;;;;;;;13.55;100.00;99913.19;4919858;29;20404;-49
2021/11/03 04:21:42;;;;;;;137.18;25.92;;;;;;;13.18;100.00;99916.16;4919492;29;20118;-54
2021/11/03 04:24:08;;;;;;;129.60;25.02;;;;;;;13.43;100.00;99912.41;4934888;29;20051;-53
2021/11/03 04:26:36;;;;;;;102.07;24.98;;;;;;;13.59;100.00;99918.91;4919081;29;20462;-55
2021/11/03 04:29:06;;;;;;;268.27;33.92;;;;;;;13.37;100.00;99913.31;4919888;29;20166;-53
2021/11/03 04:31:33;;;;;;;478.88;45.60;;;;;;;13.23;100.00;99918.94;4919285;29;20086;-56
2021/11/03 04:34:01;;;;;;;435.48;43.05;;;;;;;13.07;100.00;99916.97;4919682;29;20091;-52
2021/11/03 04:36:28;;;;;;;284.47;36.70;;;;;;;13.39;100.00;99927.34;4919070;29;20048;-53
2021/11/03 04:38:58;;;;;;;80.10;20.27;;;;;;;13.62;100.00;99926.47;4919335;29;20114;-55
2021/11/03 04:41:28;;;;;;;73.63;20.75;;;;;;;13.70;100.00;99927.97;4918501;29;20054;-54
2021/11/03 04:43:55;;;;;;;75.72;22.08;;;;;;;13.69;100.00;99929.03;4918383;29;20055;-54
2021/11/03 04:46:22;;;;;;;118.00;22.92;;;;;;;13.48;100.00;99929.41;4919118;29;20118;-54
2021/11/03 04:48:49;;;;;;;262.15;29.25;;;;;;;13.22;100.00;99933.41;4934750;29;20044;-46
2021/11/03 04:51:16;;;;;;;470.48;42.63;;;;;;;12.81;100.00;99937.84;4919350;29;20102;-50
2021/11/03 04:53:43;;;;;;;378.60;37.85;;;;;;;12.74;100.00;99933.44;4934530;29;20482;-53
2021/11/03 04:56:11;;;;;;;246.07;27.80;;;;;;;12.74;100.00;99933.44;4918934;29;20071;-50
2021/11/03 04:58:39;;;;;;;183.85;26.67;;;;;;;13.31;100.00;99934.69;4935890;29;20290;-50
2021/11/03 05:01:05;;;;;;;119.68;21.65;;;;;;;13.38;100.00;99931.88;4935531;29;20210;-54
2021/11/03 05:03:31;;;;;;;131.68;22.35;;;;;;;13.36;100.00;99931.28;4918424;29;20130;-53
2021/11/03 05:05:59;;;;;;;87.05;19.65;;;;;;;13.38;100.00;99929.19;4919213;29;20487;-54
2021/11/03 05:08:25;;;;;;;66.75;18.35;;;;;;;13.52;100.00;99937.84;4918367;29;20126;-51
2021/11/03 05:10:51;;;;;;;60.15;18.77;;;;;;;13.51;100.00;99936.19;4918154;29;20142;-52
2021/11/03 05:13:17;;;;;;;93.78;19.70;;;;;;;13.54;100.00;99940.28;4918335;29;20426;-52
2021/11/03 05:15:44;;;;;;;63.00;18.00;;;;;;;13.55;100.00;99937.34;4918717;29;20036;-52
2021/11/03 05:18:09;;;;;;;82.18;19.65;;;;;;;13.58;100.00;99941.44;4903129;29;20048;-53
2021/11/03 05:20:36;;;;;;;;;;;;;;;13.57;100.00;99937.94;4918698;29;20064;-54
2021/11/03 05:23:03;;;;;;;126.05;20.65;;;;;;;13.51;100.00;99941.56;4934404;29;19938;-55
2021/11/03 05:25:30;;;;;;;121.47;23.52;;;;;;;13.57;100.00;99946.00;4935451;29;20048;-51
2021/11/03 05:27:56;;;;;;;105.70;21.20;;;;;;;13.50;100.00;99939.94;4937242;29;20201;-52
2021/11/03 05:30:24;;;;;;;180.25;26.30;;;;;;;13.36;100.00;99938.53;4939081;29;20115;-50
2021/11/03 05:32:49;;;;;;;94.65;19.60;;;;;;;13.47;100.00;99945.78;4939585;29;20040;-52
2021/11/03 05:35:16;;;;;;;78.75;19.08;;;;;;;13.35;100.00;99943.09;4921901;29;20351;-49
2021/11/03 05:37:41;;;;;;;177.57;22.35;;;;;;;13.44;100.00;99949.75;4939157;29;20074;-53
2021/11/03 05:40:12;;;;;;;377.67;32.55;;;;;;;13.26;100.00;99948.00;4922116;29;20040;-52
2021/11/03 05:42:38;;;;;;;99.65;18.65;;;;;;;13.31;100.00;99936.56;4939096;29;20438;-49
2021/11/03 05:45:04;;;;;;;78.63;18.63;;;;;;;13.40;100.00;99935.13;4939659;29;20051;-48
2021/11/03 05:47:30;;;;;;;53.30;17.35;;;;;;;13.59;100.00;99948.44;4939091;29;20047;-50
2021/11/03 05:49:57;;;;;;;60.72;18.48;;;;;;;13.48;100.00;99937.47;4937889;29;20099;-49
2021/11/03 05:52:24;;;;;;;50.72;17.17;;;;;;;13.45;100.00;99943.31;4939059;29;20037;-54
2021/11/03 05:54:49;;;;;;;52.22;19.58;;;;;;;13.33;100.00;99939.84;4921675;29;20058;-52
2021/11/03 05:57:25;;;;;;;99.35;20.83;;;;;;;13.27;100.00;99938.91;4937621;29;20117;-51
2021/11/03 05:59:52;;;;;;;120.28;20.98;;;;;;;13.17;100.00;99938.69;4937338;29;20102;-51
2021/11/03 06:02:19;;;;;;;59.72;19.55;;;;;;;13.24;100.00;99923.25;4922025;29;20044;-48
2021/11/03 06:04:44;;;;;;;71.43;16.85;;;;;;;13.24;100.00;99925.94;4938425;29;20044;-51
2021/11/03 06:07:11;;;;;;;66.13;17.97;;;;;;;13.07;100.00;99925.03;4921517;29;20379;-51
2021/11/03 06:09:37;;;;;;;76.50;18.88;;;;;;;13.16;100.00;99924.44;4937303;29;20032;-51
2021/11/03 06:12:03;;;;;;;81.47;19.48;;;;;;;13.16;100.00;99926.31;4921276;29;20398;-51
2021/11/03 06:14:29;;;;;;;107.82;21.42;;;;;;;13.26;100.00;99923.84;4938313;29;20064;-51
2021/11/03 06:16:54;;;;;;;92.80;18.77;;;;;;;13.31;100.00;99925.81;4921613;29;20040;-49
2021/11/03 06:19:20;;;;;;;71.87;17.57;;;;;;;13.16;100.00;99929.81;4938233;29;20048;-53
2021/11/03 06:21:45;;;;;;;36.53;13.07;;;;;;;13.18;100.00;99926.91;4938151;29;20106;-51
2021/11/03 06:24:11;;;;;;;64.03;18.10;;;;;;;13.04;100.00;99927.13;4922209;29;20040;-49
2021/11/03 06:26:37;;;;;;;55.60;17.33;;;;;;;13.16;100.00;99931.69;4938332;29;20210;-53
2021/11/03 06:29:02;;;;;;;64.07;16.60;;;;;;;13.16;100.00;99924.44;4936714;29;20394;-53
2021/11/03 06:31:28;;;;;;;48.08;17.27;;;;;;;13.21;100.00;99929.09;4938617;29;20051;-54
2021/11/03 06:33:54;;;;;;;46.72;16.73;;;;;;;13.25;100.00;99932.94;4937969;29;20549;-53
2021/11/03 06:36:19;;;;;;;46.55;15.98;;;;;;;13.65;100.00;99939.44;4937970;29;20087;-52
2021/11/03 06:38:45;;;;;;;80.43;18.20;;;;;;;13.43;100.00;99939.25;4937834;29;20048;-50
2021/11/03 06:41:12;;;;;;;108.07;19.42;;;;;;;13.32;100.00;99939.00;4938479;29;20322;-51
2021/11/03 06:43:39;;;;;;;60.70;17.80;;;;;;;13.29;100.00;99939.47;4921135;29;20049;-49
2021/11/03 06:46:04;;;;;;;88.67;18.20;;;;;;;13.21;100.00;99937.16;4920674;29;20126;-47
2021/11/03 06:48:30;;;;;;;78.43;18.30;;;;;;;13.33;100.00;99942.50;4937366;29;20304;-48
2021/11/03 06:50:56;;;;;;;57.42;17.60;;;;;;;13.31;100.00;99937.38;4921183;29;20414;-49
2021/11/03 06:53:23;;;;;;;51.80;16.60;;;;;;;13.07;100.00;99939.28;4920370;29;20046;-54
2021/11/03 06:55:49;;;;;;;56.13;16.45;;;;;;;13.11;100.00;99943.13;4937416;29;20043;-53
2021/11/03 06:58:17;;;;;;;57.13;17.95;;;;;;;13.07;100.00;99939.28;4937619;29;20055;-53
2021/11/03 07:00:45;;;;;;;52.42;17.30;;;;;;;13.35;100.00;99937.72;4937519;29;20044;-48
2021/11/03 07:03:11;;;;;;;131.35;18.38;;;;;;;13.30;100.00;99948.34;4920651;29;20064;-54
2021/11/03 07:05:42;;;;;;;79.72;17.60;;;;;;;13.30;100.00;99951.84;4920375;29;20079;-51
2021/11/03 07:08:09;;;;;;;87.93;17.90;;;;;;;13.46;100.00;99955.69;4936528;29;20437;-56
2021/11/03 07:10:38;;;;;;;117.60;21.70;;;;;;;13.52;100.00;99953.94;4920397;29;20031;-49
2021/11/03 07:13:04;;;;;;;74.25;19.02;;;;;;;13.46;100.00;99955.69;4920657;29;20044;-49
2021/11/03 07:15:30;;;;;;;74.88;17.35;;;;;;;13.55;100.00;99953.47;4920154;29;20046;-48
2021/11/03 07:17:56;;;;;;;59.80;19.92;;;;;;;13.69;100.00;99959.38;4937407;29;20103;-49
2021/11/03 07:20:22;;;;;;;63.50;21.35;;;;;;;13.68;100.00;99962.34;4937013;29;20483;-51
2021/11/03 07:22:48;;;;;;;74.50;19.80;;;;;;;13.70;100.00;99970.97;4904441;29;20056;-49
2021/11/03 07:25:17;;;;;;;90.40;20.50;;;;;;;13.72;100.00;99971.53;4935967;29;20051;-53
2021/11/03 07:27:44;;;;;;;148.88;21.02;;;;;;;13.59;100.00;99968.06;4937519;29;20286;-54
2021/11/03 07:30:11;;;;;;;119.00;18.77;;;;;;;13.46;100.00;99960.28;4936547;29;20054;-52
2021/11/03 07:32:37;;;;;;;85.38;18.67;;;;;;;13.70;100.00;99962.91;4937031;29;20478;-52
2021/11/03 07:35:03;;;;;;;137.77;19.23;;;;;;;13.74;100.00;99959.53;4936762;29;20126;-51
2021/11/03 07:37:28;;;;;;;129.68;21.08;;;;;;;13.53;100.00;99962.84;4936975;29;20043;-48
2021/11/03 07:39:54;;;;;;;115.33;20.87;;;;;;;13.76;100.00;99959.25;4937012;29;20520;-52
2021/11/03 07:42:20;;;;;;;180.83;21.60;;;;;;;13.72;100.00;99958.13;4920172;29;20465;-48
2021/11/03 07:44:48;;;;;;;170.63;23.58;;;;;;;13.72;100.00;99953.53;4919526;29;20281;-54
2021/11/03 07:47:14;;;;;;;140.18;21.40;;;;;;;13.90;100.00;99952.56;4936445;29;20043;-52
2021/11/03 07:49:40;;;;;;;92.88;20.15;;;;;;;14.04;100.00;99952.25;4935654;29;20042;-51
2021/11/03 07:52:06;;;;;;;131.20;21.37;;;;;;;14.04;100.00;99954.94;4936050;29;20486;-54
2021/11/03 07:54:31;;;;;;;93.47;21.45;;;;;;;14.08;100.00;99956.13;4936065;29;20118;-49
2021/11/03 07:56:57;;;;;;;94.70;20.20;;;;;;;14.37;100.00;99956.09;4936386;29;20076;-52
2021/11/03 07:59:22;;;;;;;86.70;19.90;;;;;;;14.43;100.00;99957.00;4936060;29;20270;-52
2021/11/03 08:01:48;;;;;;;71.43;20.33;;;;;;;14.36;100.00;99962.53;4935676;29;20499;-52
2021/11/03 08:04:14;;;;;;;76.50;19.90;;;;;;;14.38;100.00;99964.97;4934582;29;20526;-52
2021/11/03 08:06:39;;;;;;;58.30;18.10;;;;;;;14.40;100.00;99963.69;4936096;29;20398;-52
2021/11/03 08:09:06;;;;;;;71.80;19.05;;;;;;;14.49;100.00;99972.16;4936540;29;20047;-49
2021/11/03 08:11:46;;;;;;;102.90;18.98;;;;;;;14.57;100.00;99973.66;4935163;29;20051;-47
2021/11/03 08:14:13;;;;;;;47.75;17.08;;;;;;;14.61;100.00;99970.22;4936509;29;20118;-51
2021/11/03 08:16:51;;;;;;;45.55;16.85;;;;;;;14.71;100.00;99971.50;4919530;29;20474;-54
2021/11/03 08:19:16;;;;;;;66.80;18.02;;;;;;;14.83;100.00;99960.66;4936645;29;20056;-54
2021/11/03 08:21:42;;;;;;;48.33;16.70;;;;;;;14.81;100.00;99965.47;4934649;29;20044;-53
2021/11/03 08:24:09;;;;;;;114.60;20.15;;;;;;;14.86;100.00;99968.22;4903994;29;20078;-53
2021/11/03 08:26:34;;;;;;;58.33;17.45;;;;;;;14.93;100.00;99966.16;4936064;29;20083;-52
2021/11/03 08:29:00;;;;;;;45.72;18.35;;;;;;;14.96;100.00;99976.44;4935517;29;20043;-55
2021/11/03 08:31:26;;;;;;;71.68;19.60;;;;;;;14.81;100.00;99968.16;4934269;29;20146;-56
2021/11/03 08:33:51;;;;;;;68.20;20.55;;;;;;;14.96;100.00;99960.28;4934402;29;20036;-57
2021/11/03 08:36:20;;;;;;;68.32;22.13;;;;;;;15.29;100.00;99973.97;4918966;29;20044;-52
2021/11/03 08:38:51;;;;;;;60.08;19.65;;;;;;;15.38;100.00;99966.25;4935203;29;20051;-54
2021/11/03 08:41:19;;;;;;;59.63;20.23;;;;;;;15.20;100.00;99965.47;4935272;29;20051;-54
2021/11/03 08:43:46;;;;;;;68.72;20.50;;;;;;;15.34;100.00;99963.28;4936054;29;20078;-56
2021/11/03 08:46:12;;;;;;;70.57;20.25;;;;;;;15.19;100.00;99958.47;4934007;29;20067;-50
2021/11/03 08:48:37;;;;;;;49.00;19.95;;;;;;;15.22;100.00;99959.84;4935315;29;20465;-49
2021/11/03 08:51:03;;;;;;;46.03;21.03;;;;;;;15.43;100.00;99963.63;4934354;29;20032;-52
2021/11/03 08:53:28;;;;;;;46.73;20.03;;;;;;;15.45;100.00;99966.88;4935763;29;20747;-51
2021/11/03 08:55:54;;;;;;;56.30;18.83;;;;;;;15.23;100.00;99965.00;4935514;29;20035;-50
2021/11/03 08:58:23;;;;;;;93.85;25.38;;;;;;;15.10;100.00;99976.13;4935353;29;20278;-54
2021/11/03 09:00:51;;;;;;;84.32;27.25;;;;;;;15.03;100.00;99977.13;4935099;29;20040;-50
2021/11/03 09:03:17;;;;;;;151.35;26.33;;;;;;;15.02;100.00;99978.16;4934892;29;20486;-52
2021/11/03 09:05:43;;;;;;;149.27;26.60;;;;;;;14.91;100.00;99982.59;4935108;29;20043;-52
2021/11/03 09:08:11;;;;;;;82.57;24.63;;;;;;;14.86;100.00;99987.88;4935152;29;20051;-49
2021/11/03 09:10:46;;;;;;;78.70;25.13;;;;;;;14.98;100.00;100000.44;4934807;29;20036;-53
2021/11/03 09:13:23;;;;;;;68.45;23.40;;;;;;;15.12;100.00;99990.97;4935362;29;20505;-48
2021/11/03 09:15:50;;;;;;;55.72;24.70;;;;;;;15.29;100.00;99995.50;4935311;29;20050;-50
2021/11/03 09:18:16;;;;;;;79.47;23.67;;;;;;;15.32;100.00;99995.84;4918058;29;20497;-52
2021/11/03 09:20:44;;;;;;;69.07;23.23;;;;;;;15.42;100.00;100007.81;4934932;29;20047;-53
2021/11/03 09:23:11;;;;;;;62.13;24.52;;;;;;;15.49;100.00;100005.78;4935114;29;20072;-53
2021/11/03 09:25:37;;;;;;;57.95;22.67;;;;;;;15.56;100.00;100011.78;4934179;29;20067;-54
2021/11/03 09:28:03;;;;;;;73.65;23.73;;;;;;;15.57;100.00;100018.81;4934867;29;20061;-52
2021/11/03 09:30:29;;;;;;;233.40;30.80;;;;;;;15.71;100.00;100019.25;4933501;29;20378;-54
2021/11/03 09:32:57;;;;;;;68.30;24.30;;;;;;;15.65;100.00;100022.94;4917880;29;20047;-54
2021/11/03 09:35:27;;;;;;;71.10;23.77;;;;;;;15.71;100.00;100029.22;4935221;29;20048;-52
2021/11/03 09:37:55;;;;;;;53.35;22.85;;;;;;;15.71;100.00;100023.84;4918209;29;20047;-54
2021/11/03 09:40:33;;;;;;;56.85;23.20;;;;;;;15.96;100.00;100030.66;4917886;29;20067;-52
2021/11/03 09:42:59;;;;;;;53.45;23.83;;;;;;;16.02;100.00;100019.66;4934732;29;20044;-54
2021/11/03 09:45:34;;;;;;;57.58;23.42;;;;;;;16.13;100.00;100020.59;4935256;29;20163;-56
2021/11/03 09:48:27;;;;;;;53.05;23.92;;;;;;;16.48;100.00;100027.44;4934643;29;20036;-52
2021/11/03 09:50:57;;;;;;;50.22;23.00;;;;;;;16.31;100.00;100015.91;4915286;29;20082;-50
2021/11/03 09:53:38;;;;;;;50.58;22.70;;;;;;;16.37;100.00;100023.00;4934775;29;20047;-55
2021/11/03 09:56:09;;;;;;;61.67;25.13;;;;;;;16.54;100.00;100022.09;4934848;29;20082;-53
2021/11/03 09:59:04;;;;;;;63.72;27.60;;;;;;;16.61;100.00;100017.31;4934457;29;20050;-52
2021/11/03 10:01:51;;;;;;;47.78;24.70;;;;;;;16.65;100.00;100025.69;4902244;29;20508;-54
2021/11/03 10:04:29;;;;;;;50.20;24.45;;;;;;;16.61;100.00;100018.13;4918243;29;20040;-49
2021/11/03 10:07:45;;;;;;;53.85;24.05;;;;;;;16.37;100.00;100023.00;4934657;29;20035;-49
2021/11/03 10:10:20;;;;;;;42.10;22.80;;;;;;;16.68;100.00;100026.00;4894248;29;20048;-51
2021/11/03 10:12:46;;;;;;;48.15;24.13;;;;;;;16.81;100.00;100029.34;4917860;29;20278;-51
2021/11/03 10:15:15;;;;;;;39.60;21.90;;;;;;;16.94;100.00;100028.09;4936915;29;20098;-55
2021/11/03 10:17:40;;;;;;;42.95;22.45;;;;;;;16.98;100.00;100029.22;4937890;29;20185;-51
2021/11/03 10:20:19;;;;;;;45.00;22.90;;;;;;;17.17;100.00;100029.66;4921253;29;20165;-52
2021/11/03 10:22:45;;;;;;;43.27;21.27;;;;;;;17.29;100.00;100038.38;4937912;29;20115;-52
2021/11/03 10:25:24;;;;;;;56.17;22.17;;;;;;;17.59;100.00;100038.84;4938738;29;20294;-52
2021/11/03 10:27:57;;;;;;;41.00;22.00;;;;;;;17.83;100.00;100038.41;4937915;29;20518;-53
2021/11/03 10:30:32;;;;;;;41.80;22.10;;;;;;;18.05;100.00;100035.56;4937736;29;20310;-50
2021/11/03 10:33:09;;;;;;;43.23;23.47;;;;;;;18.16;100.00;100034.50;4937698;29;20265;-51
2021/11/03 10:35:53;;;;;;;47.85;24.13;;;;;;;18.51;100.00;100031.34;4938042;29;20322;-51
2021/11/03 10:38:21;;;;;;;44.03;22.67;;;;;;;18.62;99.72;100038.41;4920681;29;20121;-53
2021/11/03 10:41:02;;;;;;;47.93;23.10;;;;;;;18.58;100.00;100026.47;4937963;29;20258;-52
2021/11/03 10:43:31;;;;;;;47.47;22.90;;;;;;;18.92;100.00;100026.78;4937667;29;20266;-52
2021/11/03 10:46:01;;;;;;;49.93;24.60;;;;;;;18.60;100.00;100019.72;4937617;29;20729;-50
2021/11/03 10:48:28;;;;;;;48.13;24.47;;;;;;;18.74;100.00;100020.00;4937524;29;20282;-54
2021/11/03 10:51:17;;;;;;;47.53;24.33;;;;;;;18.67;100.00;100011.31;4938143;29;20258;-56
2021/11/03 10:53:42;;;;;;;48.67;24.80;;;;;;;18.72;100.00;100013.22;4937061;29;20315;-51
2021/11/03 10:56:27;;;;;;;47.70;24.93;;;;;;;18.91;100.00;100011.59;4937299;29;20597;-54
2021/11/03 10:59:21;;;;;;;45.10;23.70;;;;;;;19.05;100.00;100008.38;4937183;29;20054;-54
2021/11/03 11:01:47;;;;;;;48.97;24.83;;;;;;;19.22;100.00;100007.25;4937680;29;20270;-54
2021/11/03 11:04:27;;;;;;;38.57;22.27;;;;;;;19.40;100.00;100014.81;4936864;29;20282;-53
2021/11/03 11:07:30;;;;;;;38.83;21.87;;;;;;;19.53;100.00;100016.13;4937379;29;20356;-54
2021/11/03 11:10:26;;;;;;;35.67;20.87;;;;;;;19.48;96.86;100005.31;4915642;29;20337;-54
2021/11/03 11:12:54;;;;;;;42.83;23.43;;;;;;;19.55;96.72;100008.53;4937330;29;20285;-54
2021/11/03 11:15:37;;;;;;;39.20;22.77;;;;;;;19.39;96.49;100006.97;4937088;29;20305;-51